createdAt,value
2018-07-26T00:02:59.677Z,100806.00
2018-07-26T00:08:03.807Z,100808.00
2018-07-26T00:13:07.967Z,100799.00
2018-07-26T00:18:12.043Z,100797.00
2018-07-26T00:23:16.097Z,100804.00
2018-07-26T00:28:20.190Z,100806.00
2018-07-26T00:33:24.299Z,100802.00
2018-07-26T00:38:28.114Z,100800.00
2018-07-26T00:43:32.175Z,100806.00
2018-07-26T00:48:36.021Z,100813.00
2018-07-26T00:53:40.091Z,100824.00
2018-07-26T00:58:44.438Z,100819.00
2018-07-26T01:03:48.543Z,100815.00
2018-07-26T01:08:52.631Z,100811.00
2018-07-26T01:13:56.472Z,100816.00
2018-07-26T01:19:00.529Z,100813.00
2018-07-26T01:24:04.337Z,100817.00
2018-07-26T01:29:08.393Z,100810.00
2018-07-26T01:34:12.210Z,100812.00
2018-07-26T01:39:16.284Z,100811.00
2018-07-26T01:44:23.443Z,100815.00
2018-07-26T01:49:27.500Z,100810.00
2018-07-26T01:54:31.578Z,100797.00
2018-07-26T01:59:35.668Z,100808.00
2018-07-26T02:04:39.477Z,100814.00
2018-07-26T02:09:43.547Z,100804.00
2018-07-26T02:14:47.619Z,100809.00
2018-07-26T02:19:51.722Z,100806.00
2018-07-26T02:24:55.770Z,100816.00
2018-07-26T02:29:59.588Z,100813.00
2018-07-26T02:35:03.632Z,100818.00
2018-07-26T02:40:07.486Z,100815.00
2018-07-26T02:45:11.305Z,100808.00
2018-07-26T02:50:15.379Z,100815.00
2018-07-26T02:55:19.431Z,100810.00
2018-07-26T03:00:23.524Z,100813.00
2018-07-26T03:05:27.567Z,100814.00
2018-07-26T03:10:31.615Z,100810.00
2018-07-26T03:15:35.723Z,100812.00
2018-07-26T03:20:39.800Z,100808.00
2018-07-26T03:25:44.119Z,100808.00
2018-07-26T03:30:48.186Z,100801.00
2018-07-26T03:35:52.010Z,100814.00
2018-07-26T03:40:56.062Z,100819.00
2018-07-26T03:46:00.119Z,100817.00
2018-07-26T03:51:04.176Z,100818.00
2018-07-26T03:56:08.042Z,100818.00
2018-07-26T04:01:11.846Z,100810.00
2018-07-26T04:06:15.913Z,100818.00
2018-07-26T04:11:20.050Z,100820.00
2018-07-26T04:16:24.085Z,100820.00
2018-07-26T04:21:28.133Z,100827.00
2018-07-26T04:26:32.208Z,100827.00
2018-07-26T04:31:36.248Z,100819.00
2018-07-26T04:36:40.312Z,100819.00
2018-07-26T04:41:44.117Z,100821.00
2018-07-26T04:46:48.183Z,100819.00
2018-07-26T04:51:52.248Z,100823.00
2018-07-26T04:56:56.300Z,100826.00
2018-07-26T05:02:00.358Z,100831.00
2018-07-26T05:07:04.413Z,100829.00
2018-07-26T05:12:08.506Z,100823.00
2018-07-26T05:17:12.526Z,100835.00
2018-07-26T05:22:16.557Z,100836.00
2018-07-26T05:27:20.385Z,100834.00
2018-07-26T05:32:24.490Z,100827.00
2018-07-26T05:37:28.588Z,100835.00
2018-07-26T05:42:32.617Z,100833.00
2018-07-26T05:47:42.885Z,100841.00
2018-07-26T05:52:46.921Z,100843.00
2018-07-26T05:57:50.733Z,100848.00
2018-07-26T06:02:54.803Z,100845.00
2018-07-26T06:07:58.861Z,100850.00
2018-07-26T06:13:02.690Z,100846.00
2018-07-26T06:18:06.583Z,100854.00
2018-07-26T06:23:10.602Z,100855.00
2018-07-26T06:28:14.646Z,100856.00
2018-07-26T06:33:18.716Z,100852.00
2018-07-26T06:38:22.893Z,100847.00
2018-07-26T06:43:26.931Z,100849.00
2018-07-26T06:48:31.086Z,100843.00
2018-07-26T06:53:34.934Z,100853.00
2018-07-26T06:58:38.993Z,100854.00
2018-07-26T07:03:42.809Z,100844.00
2018-07-26T07:08:46.870Z,100843.00
2018-07-26T07:13:50.939Z,100845.00
2018-07-26T07:18:54.789Z,100846.00
2018-07-26T07:23:58.625Z,100842.00
2018-07-26T07:29:02.473Z,100841.00
2018-07-26T07:34:06.998Z,100834.00
2018-07-26T07:39:12.827Z,100833.00
2018-07-26T07:44:17.674Z,100836.00
2018-07-26T07:49:21.818Z,100835.00
2018-07-26T07:54:25.862Z,100830.00
2018-07-26T07:59:29.915Z,100830.00
2018-07-26T08:04:33.729Z,100831.00
2018-07-26T08:09:37.807Z,100829.00
2018-07-26T08:14:41.866Z,100828.00
2018-07-26T08:19:45.909Z,100828.00
2018-07-26T08:24:49.965Z,100835.00
2018-07-26T08:29:54.029Z,100833.00
2018-07-26T08:34:58.709Z,100830.00
2018-07-26T08:40:02.826Z,100834.00
2018-07-26T08:45:06.891Z,100830.00
2018-07-26T08:50:10.944Z,100833.00
2018-07-26T08:55:15.007Z,100844.00
2018-07-26T09:00:19.541Z,100838.00
2018-07-26T09:05:23.589Z,100836.00
2018-07-26T09:10:27.498Z,100834.00
2018-07-26T09:15:31.337Z,100826.00
2018-07-26T09:20:35.382Z,100828.00
2018-07-26T09:25:39.454Z,100831.00
2018-07-26T09:30:43.281Z,100825.00
2018-07-26T09:35:47.386Z,100824.00
2018-07-26T09:40:51.134Z,100816.00
2018-07-26T09:45:55.224Z,100813.00
2018-07-26T09:50:59.258Z,100806.00
2018-07-26T09:56:03.073Z,100812.00
2018-07-26T10:01:12.637Z,100790.00
2018-07-26T10:06:16.693Z,100789.00
2018-07-26T10:11:20.517Z,100789.00
2018-07-26T10:16:25.030Z,100774.00
2018-07-26T10:21:29.082Z,100766.00
2018-07-26T10:26:33.118Z,100760.00
2018-07-26T10:31:37.153Z,100760.00
2018-07-26T10:36:41.242Z,100754.00
2018-07-26T10:41:45.382Z,100756.00
2018-07-26T10:46:49.417Z,100754.00
2018-07-26T10:51:53.231Z,100743.00
2018-07-26T10:56:57.830Z,100742.00
2018-07-26T11:02:01.641Z,100743.00
2018-07-26T11:07:05.755Z,100742.00
2018-07-26T11:12:09.585Z,100742.00
2018-07-26T11:17:13.385Z,100734.00
2018-07-26T11:22:17.426Z,100738.00
2018-07-26T11:27:21.249Z,100733.00
2018-07-26T11:32:25.148Z,100727.00
2018-07-26T11:37:28.877Z,100720.00
2018-07-26T11:42:33.198Z,100720.00
2018-07-26T11:47:37.737Z,100717.00
2018-07-26T11:52:41.571Z,100705.00
2018-07-26T11:57:45.585Z,100696.00
2018-07-26T12:02:49.418Z,100704.00
2018-07-26T12:07:53.269Z,100693.00
2018-07-26T12:12:57.343Z,100691.00
2018-07-26T12:18:01.390Z,100683.00
2018-07-26T12:23:05.445Z,100677.00
2018-07-26T12:28:09.229Z,100674.00
2018-07-26T12:33:13.278Z,100662.00
2018-07-26T12:38:17.318Z,100660.00
2018-07-26T12:43:21.360Z,100661.00
2018-07-26T12:48:25.176Z,100670.00
2018-07-26T12:53:29.221Z,100649.00
2018-07-26T12:58:33.290Z,100658.00
2018-07-26T13:03:37.322Z,100638.00
2018-07-26T13:08:41.403Z,100640.00
2018-07-26T13:13:45.745Z,100642.00
2018-07-26T13:18:49.766Z,100641.00
2018-07-26T13:23:53.810Z,100634.00
2018-07-26T13:28:57.869Z,100634.00
2018-07-26T13:34:01.903Z,100631.00
2018-07-26T13:39:11.514Z,100620.00
2018-07-26T13:44:15.637Z,100618.00
2018-07-26T13:49:19.666Z,100604.00
2018-07-26T13:54:23.730Z,100598.00
2018-07-26T13:59:27.795Z,100597.00
2018-07-26T14:04:31.881Z,100594.00
2018-07-26T14:09:35.704Z,100590.00
2018-07-26T14:14:39.805Z,100590.00
2018-07-26T14:19:43.840Z,100586.00
2018-07-26T14:24:47.878Z,100586.00
2018-07-26T14:29:51.906Z,100579.00
2018-07-26T14:34:55.982Z,100571.00
2018-07-26T14:40:00.019Z,100574.00
2018-07-26T14:45:04.378Z,100553.00
2018-07-26T14:50:08.421Z,100555.00
2018-07-26T14:55:12.237Z,100550.00
2018-07-26T15:00:16.059Z,100557.00
2018-07-26T15:05:20.120Z,100549.00
2018-07-26T15:10:24.078Z,100562.00
2018-07-26T15:15:27.902Z,100561.00
2018-07-26T15:20:31.756Z,100557.00
2018-07-26T15:25:35.560Z,100546.00
2018-07-26T15:30:39.610Z,100548.00
2018-07-26T15:35:43.663Z,100542.00
2018-07-26T15:40:47.805Z,100545.00
2018-07-26T15:45:51.872Z,100540.00
2018-07-26T15:50:55.927Z,100534.00
2018-07-26T15:55:59.986Z,100536.00
2018-07-26T16:01:04.008Z,100537.00
2018-07-26T16:06:08.064Z,100533.00
2018-07-26T16:11:12.154Z,100532.00
2018-07-26T16:16:16.246Z,100532.00
2018-07-26T16:21:20.571Z,100524.00
2018-07-26T16:26:24.612Z,100527.00
2018-07-26T16:31:28.648Z,100531.00
2018-07-26T16:36:32.782Z,100524.00
2018-07-26T16:41:36.882Z,100527.00
2018-07-26T16:46:40.688Z,100525.00
2018-07-26T16:51:44.534Z,100513.00
2018-07-26T16:56:48.581Z,100526.00
2018-07-26T17:01:52.407Z,100533.00
2018-07-26T17:06:56.479Z,100542.00
2018-07-26T17:12:00.286Z,100559.00
2018-07-26T17:17:04.383Z,100563.00
2018-07-26T17:22:08.269Z,100565.00
2018-07-26T17:27:12.115Z,100564.00
2018-07-26T17:32:16.164Z,100565.00
2018-07-26T17:37:21.183Z,100564.00
2018-07-26T17:42:25.018Z,100563.00
2018-07-26T17:47:29.069Z,100570.00
2018-07-26T17:52:33.230Z,100574.00
2018-07-26T17:57:37.040Z,100579.00
2018-07-26T18:02:41.174Z,100580.00
2018-07-26T18:07:45.220Z,100583.00
2018-07-26T18:12:49.278Z,100577.00
2018-07-26T18:17:53.418Z,100585.00
2018-07-26T18:22:57.478Z,100590.00
2018-07-26T18:28:01.566Z,100589.00
2018-07-26T18:33:06.460Z,100592.00
2018-07-26T18:38:10.606Z,100600.00
2018-07-26T18:43:14.587Z,100605.00
2018-07-26T18:48:18.392Z,100604.00
2018-07-26T18:53:22.471Z,100610.00
2018-07-26T18:58:26.539Z,100619.00
2018-07-26T19:03:30.581Z,100630.00
2018-07-26T19:08:34.648Z,100639.00
2018-07-26T19:13:38.705Z,100645.00
2018-07-26T19:18:42.794Z,100646.00
2018-07-26T19:23:46.848Z,100653.00
2018-07-26T19:28:50.726Z,100658.00
2018-07-26T19:33:54.565Z,100664.00
2018-07-26T19:38:58.614Z,100673.00
2018-07-26T19:44:02.472Z,100681.00
2018-07-26T19:54:40.880Z,100680.00
2018-07-26T19:59:44.685Z,100677.00
2018-07-26T20:04:48.734Z,100680.00
2018-07-26T20:09:52.593Z,100679.00
2018-07-26T20:14:56.443Z,100675.00
2018-07-26T20:20:00.253Z,100676.00
2018-07-26T20:25:04.346Z,100678.00
2018-07-26T20:30:08.983Z,100677.00
2018-07-26T20:35:13.045Z,100678.00
2018-07-26T20:40:16.865Z,100678.00
2018-07-26T20:45:20.925Z,100689.00
2018-07-26T20:50:24.873Z,100695.00
2018-07-26T20:55:28.907Z,100699.00
2018-07-26T21:00:32.849Z,100698.00
2018-07-26T21:05:36.897Z,100705.00
2018-07-26T21:10:41.002Z,100702.00
2018-07-26T21:15:45.058Z,100716.00
2018-07-26T21:20:49.112Z,100717.00
2018-07-26T21:25:53.169Z,100716.00
2018-07-26T21:30:57.254Z,100723.00
2018-07-26T21:36:01.314Z,100724.00
2018-07-26T21:41:05.400Z,100718.00
2018-07-26T21:46:09.232Z,100723.00
2018-07-26T21:51:13.278Z,100729.00
2018-07-26T21:56:17.094Z,100732.00
2018-07-26T22:01:20.929Z,100733.00
2018-07-26T22:06:25.137Z,100738.00
2018-07-26T22:11:29.200Z,100748.00
2018-07-26T22:16:33.307Z,100747.00
2018-07-26T22:21:37.374Z,100749.00
2018-07-26T22:26:41.442Z,100753.00
2018-07-26T22:31:45.253Z,100750.00
2018-07-26T22:36:49.308Z,100751.00
2018-07-26T22:41:53.365Z,100757.00
2018-07-26T22:46:57.422Z,100757.00
2018-07-26T22:52:01.478Z,100752.00
2018-07-26T22:57:05.675Z,100746.00
2018-07-26T23:02:09.827Z,100747.00
2018-07-26T23:07:13.882Z,100754.00
2018-07-26T23:12:18.012Z,100752.00
2018-07-26T23:17:22.363Z,100759.00
2018-07-26T23:22:26.662Z,100755.00
2018-07-26T23:27:30.825Z,100754.00
2018-07-26T23:32:35.052Z,100748.00
2018-07-26T23:37:39.102Z,100744.00
2018-07-26T23:42:43.276Z,100745.00
2018-07-26T23:47:47.403Z,100742.00
2018-07-26T23:52:51.498Z,100740.00
2018-07-26T23:57:55.546Z,100742.00
